Warm Lake, Idaho
Current Conditions -  °F | °C
As of 6:51 AM on Monday 22 Dec 2014 (Local Time) from KMYL Reporting Station
Overcast Overcast  
Wind Chill: 31°   Ceiling: 6500
Heat Index: 31°   Visibility: 10mi
Dew Point: 28°   Wind: 0mph
Humidity: 89%   Direction: NA
Pressure: 30.02"   Gusts: NA
Location:  44.4236°N, 115.8°W
Report Text: KMYL 221351Z AUTO 00000KT 10SM SCT025 SCT044 OVC065 M01/M02 A3002 RMK AO2 SLP186 T10061022
Loading
Personal Weather Stations






























Interactive Weather Map New forecast layout! Learn more

10-Day Weather Forecast

Advertisements
Track Severe Weather on mobile